Date,TemperatureHighF,TemperatureAvgF,TemperatureLowF,DewpointHighF,DewpointAvgF,DewpointLowF,HumidityHigh,HumidityAvg,HumidityLow,PressureMaxIn,PressureMinIn,WindSpeedMaxMPH,WindSpeedAvgMPH,GustSpeedMaxMPH,PrecipitationSumIn
2012-1-1,70.4,56.4,42.1,36.4,28.1,19.3,80,36,18,30.35,30.26,11,3,12,0.00
2012-1-2,61.2,56.1,49.9,39.0,27.0,17.1,54,34,19,30.41,30.25,10,3,14,0.00
2012-1-3,66.0,55.5,47.7,35.9,28.9,21.9,49,37,22,30.46,30.37,6,2,12,0.00
2012-1-4,67.8,57.6,50.4,37.2,30.0,23.7,46,35,23,30.51,30.37,8,1,9,0.00
2012-1-5,66.9,55.8,48.8,36.2,28.2,18.5,58,36,23,30.41,30.22,5,1,7,0.00
2012-1-6,56.9,49.6,45.4,37.0,33.6,28.9,65,54,39,30.28,30.21,6,1,6,0.00
2012-1-7,62.3,52.3,43.8,31.0,16.4,5.2,56,27,11,30.33,30.23,9,4,17,0.00
2012-1-8,57.0,50.9,44.9,37.8,24.2,2.3,66,40,13,30.37,30.28,5,1,17,0.00
2012-1-9,63.7,51.5,43.8,34.7,30.0,17.5,61,45,20,30.40,30.28,8,2,10,0.00
2012-1-10,63.7,52.9,46.1,31.7,27.2,20.5,50,38,20,30.30,30.19,8,3,11,0.00
2012-1-11,62.1,52.7,46.1,31.4,25.0,15.8,54,35,24,30.26,30.14,10,2,11,0.00
2012-1-12,63.2,51.8,44.3,32.4,27.4,22.6,51,40,26,30.27,30.17,7,2,9,0.00
2012-1-13,65.3,52.6,46.0,28.4,22.6,15.8,45,32,19,30.37,30.27,10,4,13,0.00
2012-1-14,64.7,52.8,44.2,27.6,22.4,12.5,45,32,15,30.32,30.18,9,3,11,0.00
2012-1-15,56.0,45.4,37.0,37.5,25.8,15.0,82,50,27,30.20,30.04,9,4,16,0.00
2012-1-16,42.5,34.6,28.8,31.3,21.3,4.8,91,61,29,30.46,30.20,4,1,16,0.00
2012-1-17,45.8,35.5,27.0,18.7,13.9,2.7,59,43,19,30.57,30.45,7,3,9,0.00
2012-1-18,47.9,41.2,37.2,21.0,16.1,11.9,46,36,29,30.56,30.39,5,1,7,0.00
2012-1-19,45.4,41.4,36.6,40.6,24.4,12.8,93,54,30,30.40,30.21,12,5,14,0.29
2012-1-20,51.4,47.6,41.6,50.6,46.4,38.9,97,95,90,30.22,29.80,9,5,20,2.97
2012-1-21,50.1,43.2,38.0,49.3,40.4,34.2,97,90,70,30.29,29.74,8,3,20,0.59
2012-1-22,41.8,39.3,35.6,40.4,36.0,32.2,96,88,70,30.32,30.02,13,5,17,0.33
2012-1-23,49.8,43.7,40.6,46.7,42.1,39.0,96,94,84,30.28,29.84,9,3,16,1.22
2012-1-24,51.3,44.4,38.0,44.6,39.6,34.4,95,84,61,30.56,30.27,6,1,9,0.00
2012-1-25,59.3,50.5,43.1,48.8,44.2,39.1,92,79,61,30.58,30.45,5,1,8,0.01
2012-1-26,51.9,49.0,44.9,50.2,47.0,43.2,96,93,89,30.45,30.35,8,2,8,0.07
2012-1-27,59.2,49.4,42.8,43.8,34.4,15.3,96,59,29,30.41,30.31,11,3,13,0.00
2012-1-28,58.1,48.0,40.3,42.5,30.0,12.5,83,52,27,30.49,30.37,8,2,11,0.00
2012-1-29,65.8,52.9,45.2,36.8,30.7,18.2,70,45,17,30.43,30.23,11,3,12,0.00
2012-1-30,59.5,50.4,44.5,39.6,32.7,21.7,74,52,32,30.24,30.10,11,2,12,0.00
2012-1-31,59.9,48.9,41.5,41.8,37.2,32.2,83,65,42,30.30,30.16,13,3,17,0.00
2012-2-1,51.1,44.9,41.3,46.0,41.6,38.3,96,89,75,30.39,30.26,6,2,12,0.15
2012-2-2,61.5,50.2,39.9,38.3,25.1,4.2,89,42,15,30.37,30.08,6,2,10,0.00
2012-2-3,57.8,47.0,38.5,36.1,29.3,18.0,84,52,33,30.20,30.12,8,3,11,0.00
2012-2-4,61.2,49.1,41.3,30.9,27.4,23.9,59,44,27,30.26,30.19,9,4,12,0.00
2012-2-5,62.3,49.9,42.3,35.4,28.9,22.5,61,46,24,30.26,30.14,11,4,16,0.00
2012-2-6,63.2,50.8,43.2,31.2,26.4,20.1,57,39,23,30.15,29.92,11,6,13,0.00
2012-2-7,53.3,48.6,44.3,44.2,38.7,20.5,94,71,28,30.25,29.92,14,2,14,0.07
2012-2-8,61.8,50.1,42.2,46.4,42.9,39.2,93,78,48,30.38,30.25,6,2,8,0.01
2012-2-9,66.0,53.9,44.5,47.4,43.1,37.4,87,68,40,30.43,30.27,9,3,12,0.00
2012-2-10,62.3,51.4,46.5,48.9,43.5,37.5,96,76,51,30.31,30.15,9,2,12,0.30
2012-2-11,51.1,45.7,43.3,45.4,43.2,40.8,96,91,73,30.18,30.09,4,0,5,0.00
2012-2-12,55.1,45.7,39.5,43.2,41.0,38.0,96,85,61,30.17,30.04,4,1,9,0.34
2012-2-13,44.3,39.7,35.8,41.1,37.7,33.8,96,93,69,30.14,29.97,5,1,18,0.75
2012-2-14,52.0,41.5,32.9,42.3,36.9,31.6,96,84,62,30.21,30.09,8,2,14,0.00
2012-2-15,53.2,42.0,31.0,37.1,26.7,18.3,92,59,32,30.32,30.07,10,3,15,0.23
2012-2-16,59.6,48.2,37.5,32.5,23.7,15.9,61,39,22,30.39,30.29,8,2,15,0.00
2012-2-17,58.4,48.1,39.5,37.3,30.1,20.1,71,50,34,30.41,30.30,9,2,10,0.00
2012-2-18,52.5,44.5,36.8,44.2,36.9,30.9,89,75,58,30.31,30.19,9,3,11,0.00
2012-2-19,52.2,42.4,36.0,35.1,27.6,22.6,88,57,37,30.24,30.16,8,2,10,0.00
2012-2-20,51.1,44.2,38.8,38.8,34.3,26.9,84,69,53,30.33,30.20,12,3,15,0.00
2012-2-21,64.0,53.0,42.6,45.8,39.6,32.4,82,61,47,30.41,30.30,6,2,10,0.00
2012-2-22,66.6,56.8,50.5,43.0,37.0,30.9,57,48,32,30.39,30.16,6,1,10,0.00
2012-2-23,69.6,59.2,49.9,38.6,22.9,13.7,59,27,12,30.16,30.05,7,4,12,0.00
2012-2-24,69.6,57.5,47.3,44.0,35.1,16.7,65,44,20,30.20,30.07,8,3,14,0.00
2012-2-25,56.2,46.3,39.3,36.6,27.2,12.4,87,52,22,30.40,30.20,6,2,16,0.00
2012-2-26,53.9,45.4,36.0,28.5,17.5,6.0,41,33,23,30.19,29.93,9,2,16,0.00
2012-2-27,46.7,39.2,34.9,39.3,30.1,16.0,92,71,36,30.07,29.91,9,2,11,0.03
2012-2-28,49.2,39.4,32.4,35.7,31.3,28.4,88,73,53,30.34,30.07,9,4,13,0.01
2012-2-29,40.5,37.7,34.4,39.3,36.1,32.3,96,94,77,30.35,30.16,10,4,20,1.32
2012-3-1,40.8,37.1,34.7,39.7,36.1,33.7,96,96,96,30.41,30.31,5,3,12,0.79
2012-3-2,56.2,43.3,32.8,38.6,31.5,20.9,96,65,41,30.48,30.37,10,2,16,0.00
2012-3-3,64.7,50.3,39.2,42.7,35.8,28.2,75,59,38,30.50,30.38,10,2,11,0.00
2012-3-4,72.5,57.8,46.4,42.4,37.7,31.4,74,49,23,30.38,30.18,7,3,9,0.00
2012-3-5,70.4,57.0,48.0,40.9,34.8,21.9,64,45,23,30.19,29.98,9,4,11,0.00
2012-3-6,50.7,41.2,34.9,38.0,25.5,7.6,90,57,28,30.18,29.93,10,4,17,0.12
2012-3-7,55.7,44.1,31.0,21.9,12.9,3.2,37,28,18,30.33,30.17,8,4,12,0.00
2012-3-8,63.5,51.1,41.2,31.9,24.3,17.7,54,36,22,30.46,30.31,9,2,11,0.00
2012-3-9,70.3,55.7,44.6,34.1,30.0,23.8,58,40,19,30.47,30.20,10,3,10,0.00
2012-3-10,64.2,51.9,44.8,43.6,33.0,22.8,86,53,23,30.20,30.05,9,3,12,0.00
2012-3-11,51.6,44.7,39.6,45.6,41.1,38.0,96,87,73,30.17,30.05,5,2,12,0.06
2012-3-12,52.2,45.1,39.2,39.6,35.7,31.0,81,70,59,30.18,30.06,5,1,10,0.00
2012-3-13,45.7,44.3,42.6,44.6,42.3,37.1,96,93,75,30.14,30.00,7,4,16,1.69
2012-3-14,49.8,47.7,45.5,49.0,46.8,44.4,97,97,96,30.27,30.11,6,3,17,3.00
2012-3-15,53.8,50.7,49.2,53.0,49.9,48.4,97,97,97,30.28,30.15,4,2,10,0.50
2012-3-16,49.4,47.6,41.2,48.6,46.8,40.4,97,97,97,30.16,29.78,9,3,20,4.19
2012-3-17,44.3,37.8,32.4,43.5,36.6,30.9,97,95,90,29.83,29.60,5,1,20,0.24
2012-3-18,38.6,33.4,31.8,37.6,32.2,30.6,96,95,92,30.07,29.71,4,1,7,0.35
2012-3-19,43.9,36.8,31.5,36.2,32.5,27.4,96,85,57,30.24,30.07,4,0,6,0.32
2012-3-20,55.1,46.1,37.5,41.1,35.8,27.9,87,69,45,30.36,30.24,7,1,8,0.00
2012-3-21,66.0,53.6,44.6,48.5,44.2,38.2,89,72,49,30.32,30.08,5,1,7,0.00
2012-3-22,55.0,48.5,37.9,47.5,44.1,31.4,94,85,72,30.09,30.01,7,1,13,0.08
2012-3-23,57.5,44.6,32.1,35.6,31.3,23.7,90,63,28,30.23,30.02,7,2,9,0.00
2012-3-24,52.0,47.2,43.3,39.0,36.0,31.3,79,65,52,30.02,29.94,7,2,11,0.00
2012-3-25,47.7,41.6,35.5,42.9,38.3,33.9,96,88,73,30.01,29.87,6,1,9,0.35
2012-3-26,50.1,44.0,38.0,42.4,37.9,31.8,95,80,55,30.23,29.98,6,2,9,0.00
2012-3-27,52.9,45.7,42.1,42.5,39.5,36.2,95,80,56,30.18,30.05,10,4,14,0.76
2012-3-28,57.6,48.0,42.2,52.4,44.2,40.9,97,87,60,30.26,30.06,7,2,15,0.71
2012-3-29,58.6,49.4,43.9,47.3,42.8,39.3,92,79,54,30.27,30.19,7,1,10,0.03
2012-3-30,65.8,53.7,46.1,52.0,47.4,44.7,96,81,53,30.24,30.00,9,2,10,0.12
2012-3-31,51.0,44.1,37.5,47.9,42.2,36.5,96,93,79,30.13,29.81,8,3,16,1.44
2012-4-1,53.6,43.5,37.8,42.5,36.4,28.8,96,78,47,30.40,30.13,6,1,14,0.04
2012-4-2,61.2,49.9,37.9,42.0,35.8,28.4,80,59,38,30.35,30.14,7,2,10,0.00
2012-4-3,65.6,52.5,44.3,45.7,41.5,34.5,95,68,33,30.21,30.07,6,2,13,0.33
2012-4-4,53.6,43.7,35.2,45.4,32.8,22.9,95,69,34,30.27,30.08,5,1,12,0.20
2012-4-5,51.7,41.2,33.2,33.0,27.7,21.0,82,60,33,30.28,30.17,7,1,12,0.00
2012-4-6,56.6,44.1,32.8,33.2,26.6,19.0,76,52,29,30.40,30.28,7,4,10,0.00
2012-4-8,55.3,54.2,52.2,41.2,39.7,38.3,61,58,53,30.12,30.10,0,0,7,0.01
2012-4-9,70.1,58.6,49.2,39.6,32.2,18.4,65,39,15,30.10,29.91,8,2,10,0.00
2012-4-10,58.0,50.4,43.6,45.6,39.9,29.9,90,68,53,30.00,29.89,4,1,7,0.00
2012-4-11,48.0,43.6,41.1,46.9,41.7,39.2,96,93,89,30.13,29.88,6,2,13,0.85
2012-4-12,45.8,41.6,38.8,44.4,40.0,36.9,96,94,91,30.19,29.98,7,4,20,1.37
2012-4-13,49.2,39.9,35.8,46.3,38.2,34.5,96,94,78,29.97,29.84,8,3,17,1.18
2012-4-14,58.4,43.2,36.0,45.5,38.3,34.4,95,84,60,30.13,29.96,5,1,12,0.00
2012-4-17,70.4,61.2,47.9,50.4,44.1,34.9,73,55,31,30.25,30.14,8,1,9,0.00
2012-4-18,67.9,58.0,48.3,47.7,40.7,32.2,77,54,28,30.23,30.14,5,0,7,0.00
2012-4-19,74.0,63.3,51.6,55.0,48.4,40.8,73,59,44,30.23,30.13,5,2,12,0.00
2012-4-20,81.2,70.8,62.4,59.8,53.0,46.6,68,54,37,30.15,30.05,6,1,12,0.00
2012-4-21,85.5,72.5,61.2,60.3,53.5,49.3,66,53,32,30.06,29.95,6,2,9,0.00
2012-4-22,87.6,74.7,63.5,57.9,51.8,46.6,66,46,27,29.98,29.90,8,2,12,0.00
2012-4-23,75.1,64.7,52.2,58.7,50.7,45.9,86,62,44,30.09,29.88,6,1,10,0.00
2012-4-24,72.0,59.5,51.0,56.2,49.9,47.2,87,72,49,30.16,30.03,5,0,9,0.00
2012-4-25,59.2,56.3,52.6,57.2,53.0,49.4,95,89,74,30.09,29.86,5,1,8,0.45
2012-4-26,57.6,50.6,44.1,52.4,47.3,39.6,96,89,70,30.30,29.86,4,1,12,0.71
2012-4-27,64.3,52.3,40.5,47.2,40.8,34.4,90,67,43,30.31,30.20,4,1,13,0.00
2012-4-28,72.7,61.0,48.2,51.6,45.4,40.3,77,58,40,30.20,29.95,5,1,13,0.00
2012-4-29,77.2,66.0,56.0,53.6,45.7,32.6,66,49,34,30.00,29.93,5,1,10,0.00
2012-4-30,79.6,66.1,56.0,56.6,50.2,45.7,77,58,34,30.04,29.92,7,2,11,0.00
2012-5-1,72.0,60.3,50.7,53.1,48.1,42.2,92,66,36,29.95,29.91,4,0,7,0.00
2012-5-2,70.3,57.4,47.6,49.7,43.3,32.2,80,61,38,30.02,29.91,5,1,9,0.00
2012-5-3,57.3,51.1,46.2,50.4,42.5,29.0,91,73,50,30.19,29.98,4,1,9,0.04
2012-5-4,63.7,53.6,47.7,50.3,44.8,35.2,95,75,37,30.31,30.17,2,0,6,0.00
2012-5-5,71.5,59.2,45.5,44.4,35.9,19.0,70,44,19,30.30,30.13,8,3,13,0.00
2012-5-6,80.5,68.9,58.4,43.9,26.1,13.5,28,20,13,30.15,30.08,9,4,17,0.00
2012-5-10,79.8,70.2,57.0,53.5,43.4,33.6,52,39,25,29.95,29.91,5,1,10,0.00
2012-5-11,82.6,71.4,59.8,44.2,36.9,26.1,47,29,19,30.03,29.91,8,2,10,0.00
2012-5-12,85.1,72.5,61.2,48.2,41.5,35.6,44,33,23,30.10,30.03,4,1,9,0.00
2012-5-13,83.4,69.8,55.3,58.1,46.0,36.9,62,44,25,30.08,30.00,3,0,7,0.00
2012-5-14,70.8,58.5,47.1,51.5,44.8,39.2,81,61,44,30.17,30.08,6,1,9,0.00
2012-5-15,78.6,63.5,51.4,53.2,48.5,44.8,81,60,36,30.12,30.03,5,0,10,0.00
2012-5-16,82.4,69.4,58.9,59.8,53.9,50.5,78,60,35,30.07,29.93,6,0,10,0.00
2012-5-17,76.1,64.9,54.8,53.0,47.2,36.8,75,54,28,29.93,29.86,8,1,10,0.00
2012-5-18,76.7,64.8,53.9,50.7,42.1,32.2,74,46,24,30.00,29.92,4,1,16,0.00
2012-5-19,80.7,68.8,56.2,49.6,40.1,29.2,56,37,18,30.05,29.97,3,1,16,0.00
2012-5-20,87.0,73.0,60.7,50.9,43.0,33.6,52,35,22,30.04,29.97,7,1,9,0.00
2012-5-21,81.6,70.8,58.0,56.0,47.9,38.0,68,46,22,30.12,29.98,8,2,10,0.00
2012-5-22,78.1,65.8,54.5,55.8,46.5,36.8,74,52,27,30.15,30.05,5,1,7,0.00
2012-5-23,74.4,62.7,52.5,47.3,40.2,31.5,77,46,21,30.06,29.95,3,1,11,0.00
2012-5-24,73.5,62.4,51.9,46.4,37.2,23.4,60,42,16,29.96,29.69,3,1,11,0.00
2012-5-25,61.2,50.7,41.8,42.0,35.2,29.3,81,56,35,29.92,29.70,6,1,6,0.00
2012-5-26,68.3,51.6,42.3,48.1,42.6,37.7,87,73,43,30.16,29.91,10,3,11,0.01
2012-5-27,71.3,58.6,45.5,50.6,44.1,40.8,84,61,37,30.22,30.12,8,2,9,0.00
2012-5-28,75.1,62.0,49.6,50.7,44.4,37.7,77,55,28,30.13,30.05,5,2,10,0.00
2012-5-29,78.5,65.1,52.0,52.7,46.1,41.7,73,52,32,30.11,30.05,6,1,9,0.00
2012-5-30,84.5,70.6,57.6,51.8,45.5,38.2,63,43,21,30.14,30.06,3,1,7,0.00
2012-5-31,89.3,75.6,63.4,55.5,50.9,46.1,58,43,27,30.08,29.91,5,0,7,0.00
2012-6-1,92.3,79.2,67.6,60.5,54.7,51.2,59,44,26,29.91,29.78,5,1,7,0.00
2012-6-2,86.1,74.2,62.1,59.8,54.6,50.9,72,52,35,29.95,29.79,7,1,8,0.00
2012-6-3,86.5,72.2,60.5,54.1,50.5,42.8,79,50,26,29.98,29.89,5,1,6,0.00
2012-6-4,63.2,55.7,47.7,54.3,50.8,45.2,95,84,61,30.14,29.91,3,0,7,0.41
2012-6-5,65.5,52.3,42.9,46.7,41.6,36.3,95,70,35,30.28,30.14,4,1,10,0.00
2012-6-6,76.1,61.2,46.5,45.7,40.6,34.4,78,49,28,30.17,30.01,3,1,10,0.00
2012-6-7,81.2,68.0,52.9,49.7,45.4,37.3,74,48,21,30.06,29.98,4,1,7,0.00
2012-6-8,79.0,66.8,54.5,53.7,44.9,34.9,76,49,24,30.00,29.92,5,1,9,0.00
2012-6-9,80.5,65.0,50.8,45.4,33.3,11.5,65,37,11,30.03,29.93,7,2,14,0.00
2012-6-10,86.5,73.2,59.6,44.4,30.3,11.0,41,21,13,29.97,29.92,6,1,14,0.00
2012-6-11,91.0,77.6,63.9,47.4,38.0,20.9,42,25,16,30.03,29.94,9,2,10,0.00
2012-6-12,92.1,77.8,65.2,50.9,44.1,34.8,47,32,17,30.01,29.90,7,2,10,0.00
2012-6-13,91.0,77.4,65.3,56.0,49.3,42.7,51,38,25,29.90,29.77,6,1,10,0.00
2012-6-14,90.5,77.7,64.7,58.0,52.0,42.0,63,43,24,29.80,29.75,6,1,9,0.00
2012-6-15,93.6,78.9,65.3,58.4,50.7,45.9,56,39,20,29.85,29.76,5,1,9,0.00
2012-6-16,101.7,87.1,73.0,55.9,45.8,32.8,46,25,15,29.89,29.82,8,1,12,0.00
2012-6-17,99.2,85.5,71.5,56.2,50.2,42.6,48,31,19,29.89,29.79,5,1,10,0.00
2012-6-18,90.7,76.5,64.5,52.1,45.2,32.9,57,35,16,29.91,29.82,5,1,12,0.00
2012-6-19,89.5,75.9,61.3,47.9,36.5,22.1,38,24,18,29.93,29.83,6,1,9,0.00
2012-6-20,95.6,79.0,63.7,47.2,38.4,18.9,42,26,11,29.89,29.83,5,1,9,0.00
2012-6-21,88.4,74.1,53.2,47.9,42.9,35.9,62,35,16,29.93,29.80,6,2,10,0.00
2012-6-22,72.8,60.0,45.8,51.6,45.3,40.1,82,60,36,30.04,29.90,4,1,9,0.00
2012-6-23,73.7,60.7,50.7,50.8,43.8,32.9,92,59,24,30.00,29.88,6,1,11,0.01
2012-6-24,76.0,60.3,44.6,46.2,39.4,32.5,81,50,27,30.09,29.99,5,1,9,0.00
2012-6-25,76.7,61.6,45.7,44.9,39.4,35.0,72,47,25,30.15,30.06,6,1,7,0.00
2012-6-26,78.1,63.9,47.1,46.8,43.0,34.7,87,51,28,30.12,29.95,6,1,10,0.00
2012-6-27,88.0,71.3,55.7,47.6,40.2,29.7,62,36,17,30.00,29.93,2,0,8,0.00
2012-6-28,89.5,73.5,58.6,46.9,41.7,37.8,52,34,18,30.09,29.98,6,2,9,0.00
2012-6-29,87.4,73.2,58.9,52.9,46.3,41.6,59,41,23,30.11,30.02,6,2,9,0.00
2012-6-30,87.6,74.4,59.3,57.6,50.6,45.0,71,46,26,30.04,29.93,6,2,9,0.00
2012-7-1,85.7,72.5,59.2,61.3,56.7,53.0,88,60,34,29.98,29.90,2,0,6,0.01
2012-7-2,89.9,76.1,63.2,60.0,55.7,51.1,77,52,28,29.92,29.86,2,0,7,0.00
2012-7-3,91.2,77.0,65.2,59.1,52.3,43.6,68,46,20,29.93,29.84,7,2,9,0.00
2012-7-4,92.7,78.5,65.8,56.7,47.9,37.1,56,37,16,29.88,29.84,4,1,6,0.00
2012-7-5,90.1,75.9,62.3,52.3,47.0,41.2,58,38,21,29.99,29.87,7,2,11,0.00
2012-7-6,90.1,73.0,64.2,52.3,37.1,-99.9,53,32,19,30.04,29.97,6,1,9,0.00
2012-7-7,94.0,80.2,67.6,49.2,44.5,39.3,46,30,16,30.04,29.96,5,1,11,0.00
2012-7-8,96.3,81.4,69.4,51.6,44.0,38.0,43,29,15,30.02,29.97,5,1,12,0.00
2012-7-9,95.6,81.0,68.6,50.6,44.6,36.7,41,29,17,30.04,29.98,3,1,12,0.00
2012-7-10,98.7,83.1,70.1,50.0,41.7,30.7,40,25,12,29.99,29.89,2,0,9,0.00
2012-7-11,103.1,86.0,71.5,48.2,38.6,29.2,30,20,10,29.93,29.85,8,2,10,0.00
2012-7-12,102.8,86.5,73.0,50.1,42.9,37.3,30,23,12,29.87,29.81,9,2,11,0.00
2012-7-13,96.8,81.1,68.3,53.8,46.4,34.7,54,32,12,29.90,29.81,9,2,12,0.00
2012-7-14,91.2,76.8,65.3,50.5,45.6,38.8,55,35,18,29.96,29.86,5,1,10,0.00
2012-7-15,92.7,78.1,66.6,52.1,45.9,39.1,49,33,18,29.94,29.83,4,0,6,0.00
2012-7-16,81.4,70.5,52.9,53.1,48.1,43.1,80,47,28,29.94,29.80,9,2,11,0.00
2012-7-17,74.9,59.9,49.1,52.7,48.4,45.8,91,69,38,30.07,29.93,3,0,9,0.00
2012-7-18,83.0,67.4,54.1,54.1,50.3,47.1,81,57,31,30.07,30.02,3,0,6,0.00
2012-7-19,84.7,71.7,63.7,54.6,51.0,41.5,66,49,31,30.09,29.99,6,1,7,0.00
2012-7-20,90.5,76.3,62.0,57.5,47.7,38.9,68,40,17,30.13,30.02,8,1,9,0.00
2012-7-21,98.0,82.3,69.3,52.4,44.5,38.4,41,28,15,30.03,29.92,3,0,9,0.00
2012-7-22,100.7,85.8,73.0,53.2,47.1,41.7,41,27,18,29.94,29.85,5,1,10,0.00
2012-7-23,93.8,82.3,69.3,63.2,52.4,41.3,68,37,22,29.95,29.85,11,2,15,0.00
2012-7-24,90.1,76.6,65.5,57.4,47.3,38.7,63,38,19,29.99,29.94,5,0,6,0.00
2012-7-25,91.2,77.0,62.3,51.1,45.1,37.9,57,35,17,30.02,29.94,6,1,9,0.00
2012-7-26,90.5,76.0,64.8,51.6,45.6,37.6,50,36,19,29.99,29.93,6,1,9,0.00
2012-7-27,88.8,74.8,63.7,51.0,46.1,39.7,53,38,21,30.03,29.95,4,1,10,0.00
2012-7-28,90.3,75.2,63.1,50.2,44.8,38.4,54,36,20,30.07,30.01,3,0,10,0.00
2012-7-29,91.8,77.2,64.5,49.7,45.1,38.2,49,34,18,30.05,29.98,3,0,9,0.00
2012-7-30,86.7,72.5,66.8,45.5,42.9,40.8,44,35,20,30.03,29.94,5,1,9,0.00
2012-7-31,97.3,81.8,67.8,47.5,42.3,37.4,38,26,14,30.03,29.97,8,2,11,0.00
2012-8-1,98.0,82.1,68.1,45.7,40.3,31.8,41,25,10,30.09,29.99,7,2,10,0.00
2012-8-2,100.2,84.1,69.1,45.9,39.5,32.0,32,22,11,30.03,29.90,6,2,10,0.00
2012-8-3,93.6,82.1,74.2,50.3,48.0,41.3,43,32,17,29.83,29.80,1,0,10,0.00
2012-8-4,94.7,79.3,69.1,52.9,48.9,43.1,47,36,21,29.99,29.82,8,2,10,0.00
2012-8-5,93.8,79.7,66.3,59.2,52.7,46.9,71,42,22,30.09,29.93,15,1,25,0.00
2012-8-6,95.1,79.5,65.6,51.8,41.9,28.8,56,30,14,30.15,30.07,5,2,9,0.00
2012-8-7,96.8,81.7,68.9,46.5,38.2,34.5,32,22,13,30.08,30.00,7,2,11,0.00
2012-8-8,98.5,82.7,70.4,46.6,40.6,36.3,31,23,14,30.04,29.95,5,1,7,0.00
2012-8-9,99.7,85.5,74.0,50.0,42.4,32.9,35,23,11,29.97,29.87,5,1,9,0.00
2012-8-10,103.1,87.4,75.3,47.5,39.2,33.4,27,19,10,29.88,29.79,6,1,7,0.00
2012-8-11,106.5,90.0,75.8,48.5,40.7,28.9,28,19,8,29.83,29.78,8,2,12,0.00
2012-8-12,103.1,89.0,77.2,52.1,42.7,27.2,34,21,11,29.87,29.80,6,2,10,0.00
2012-8-13,102.8,89.0,79.0,55.0,48.3,42.4,34,25,14,29.86,29.80,6,2,9,0.00
2012-8-14,100.7,87.2,78.6,57.9,49.8,41.9,37,28,18,29.84,29.77,6,1,9,0.00
2012-8-15,97.8,85.3,75.3,55.6,51.7,45.0,48,33,19,29.89,29.77,6,2,9,0.00
2012-8-16,97.3,83.3,71.5,55.2,51.3,44.0,51,35,22,29.95,29.87,3,1,7,0.00
2012-8-17,97.5,82.7,71.6,57.9,49.1,35.3,54,34,12,30.00,29.91,8,1,12,0.00
2012-8-18,97.8,82.7,75.6,54.4,44.8,39.3,44,28,15,30.00,29.90,6,0,6,0.00
2012-8-19,95.1,81.3,69.8,50.5,43.7,35.2,41,28,16,29.96,29.90,5,1,6,0.00
2012-8-20,95.9,81.0,69.4,46.3,42.0,34.5,38,26,14,29.95,29.88,4,1,7,0.00
2012-8-21,94.7,79.8,68.4,45.1,41.1,33.5,40,27,12,29.94,29.87,9,3,11,0.00
2012-8-22,92.1,78.8,68.4,50.1,41.9,33.1,44,28,18,29.94,29.88,4,1,6,0.00
2012-8-23,92.5,78.7,67.6,47.5,41.0,35.2,43,28,15,29.96,29.88,6,1,9,0.00
2012-8-24,94.5,79.8,68.3,44.2,39.8,34.9,36,25,16,29.94,29.85,7,2,9,0.00
2012-8-25,91.8,77.3,65.6,50.5,42.3,34.7,44,30,15,29.87,29.80,6,2,10,0.00
2012-8-26,83.4,70.3,56.5,46.1,41.1,32.2,60,37,20,30.02,29.83,5,1,7,0.00
2012-8-27,88.0,73.5,60.1,43.4,40.7,35.4,50,33,17,30.11,30.00,6,2,9,0.00
2012-8-28,91.2,76.0,64.2,45.7,36.5,22.9,40,26,14,30.09,29.98,6,2,7,0.00
2012-8-29,93.8,78.2,65.0,40.9,30.9,22.3,38,19,10,29.99,29.86,7,2,10,0.00
2012-8-30,94.5,79.6,68.9,40.9,34.7,27.7,27,20,12,29.86,29.79,8,2,12,0.00
2012-8-31,84.1,69.7,56.0,50.8,43.3,33.5,77,41,24,29.99,29.82,7,1,10,0.00
2012-9-1,82.6,67.2,54.5,49.2,41.9,34.4,80,42,21,30.09,29.97,5,1,7,0.00
2012-9-2,87.4,73.4,61.2,44.4,39.4,36.1,47,31,17,30.05,29.98,2,0,6,0.00
2012-9-3,91.4,76.3,64.8,43.1,39.6,35.0,41,28,15,30.04,29.98,4,1,10,0.00
2012-9-4,92.7,77.9,65.0,41.6,37.7,31.8,40,25,13,30.07,30.00,8,3,10,0.00
2012-9-5,91.2,76.8,68.3,53.5,43.3,35.3,50,31,18,30.02,29.96,9,3,13,0.00
2012-9-6,90.7,75.4,67.9,54.3,46.5,36.9,56,38,20,30.04,29.95,9,2,12,0.00
2012-9-7,90.1,76.4,65.3,49.5,45.7,42.6,47,35,21,30.11,30.03,5,1,7,0.00
2012-9-8,90.3,77.7,66.1,53.4,50.3,47.3,57,40,25,30.08,29.97,6,1,7,0.00
2012-9-9,89.5,76.5,67.1,52.2,43.9,33.2,57,34,16,30.00,29.92,5,1,6,0.00
2012-9-10,89.5,74.9,63.9,49.2,41.5,36.5,49,32,16,29.97,29.87,6,1,9,0.00
2012-9-11,89.5,75.7,65.3,48.7,43.0,39.7,47,33,19,29.98,29.88,5,1,10,0.00
2012-9-12,87.6,75.8,65.0,47.2,43.3,39.3,49,32,19,30.09,29.98,3,0,10,0.00
2012-9-13,95.9,80.7,68.1,46.3,40.1,30.1,39,25,15,30.15,30.06,4,1,10,0.00
2012-9-14,95.6,81.0,70.6,50.3,43.8,37.6,39,28,17,30.11,30.05,8,2,11,0.00
2012-9-15,93.8,79.7,68.1,44.9,38.4,32.0,37,24,13,30.13,30.05,5,2,7,0.00
2012-9-16,92.5,78.4,66.9,39.4,34.2,29.7,28,21,13,30.08,30.02,8,2,10,0.00
2012-9-17,86.7,75.7,67.6,43.5,37.1,30.6,34,25,17,30.06,30.00,6,1,10,0.00
2012-9-18,87.0,74.2,65.0,47.3,40.6,36.0,42,31,19,30.11,30.03,5,2,9,0.00
2012-9-19,87.4,75.1,65.3,43.2,39.6,34.3,37,29,19,30.11,30.06,5,1,9,0.00
2012-9-20,87.0,76.0,67.4,44.1,40.1,36.1,34,28,21,30.08,30.01,3,0,7,0.00
2012-9-21,87.6,76.3,67.8,46.7,41.7,37.1,37,29,20,30.04,29.94,4,0,9,0.00
2012-9-22,91.0,76.9,66.4,45.2,42.5,38.4,44,30,18,30.00,29.94,7,2,9,0.00
2012-9-23,88.2,74.6,68.3,50.9,42.8,33.3,41,33,22,30.03,29.95,7,2,10,0.00
2012-9-24,84.5,72.1,61.5,42.8,35.5,29.5,46,28,16,30.02,29.93,8,2,10,0.00
2012-9-25,85.9,74.1,64.5,44.3,38.0,31.4,42,27,20,29.96,29.89,7,2,11,0.00
2012-9-26,85.1,73.9,63.7,46.1,42.9,38.3,43,34,22,29.96,29.89,5,1,9,0.00
2012-9-27,91.4,78.1,68.1,44.5,39.3,35.3,38,26,15,29.99,29.91,6,2,9,0.00
2012-9-28,90.3,78.0,69.9,49.0,37.6,31.4,39,24,16,29.97,29.89,6,2,12,0.00
2012-9-29,90.1,77.9,68.1,43.0,37.1,32.4,28,23,16,30.08,29.96,4,1,9,0.00
2012-9-30,92.9,79.8,70.1,42.7,37.6,31.6,28,23,12,30.14,30.04,4,1,10,0.00
2012-10-1,97.1,82.0,72.3,44.9,36.9,29.1,27,20,12,30.09,29.97,5,1,10,0.00
2012-10-2,93.2,80.7,72.0,40.8,36.0,31.5,27,21,13,29.98,29.89,7,1,10,0.00
2012-10-3,92.3,78.7,69.4,37.9,33.7,29.5,27,20,12,29.98,29.89,9,3,12,0.00
2012-10-4,81.4,69.5,61.3,48.5,41.6,32.6,58,38,27,30.13,29.97,8,2,9,0.00
2012-10-5,75.1,62.8,53.9,50.5,45.7,39.1,79,55,39,30.20,30.12,3,0,6,0.00
2012-10-6,73.9,60.5,50.8,50.2,47.6,45.1,85,65,39,30.16,30.04,3,0,6,0.00
2012-10-7,75.4,62.8,54.1,50.1,47.0,42.6,72,58,37,30.08,30.00,4,0,6,0.00
2012-10-8,70.9,58.9,51.0,47.6,44.8,41.4,82,61,38,30.11,30.04,7,1,10,0.00
2012-10-9,70.6,58.9,49.8,45.2,41.9,36.3,76,55,30,30.13,30.03,6,2,10,0.00
2012-10-10,71.5,61.4,53.8,43.9,41.5,39.0,66,49,32,30.04,29.95,4,1,10,0.00
2012-10-11,66.4,56.3,49.6,48.2,45.3,41.6,89,68,50,30.06,29.92,5,1,6,0.00
2012-10-12,58.4,52.3,48.5,48.9,47.0,45.8,93,83,68,30.33,30.04,2,0,4,0.00
2012-10-13,67.8,56.4,47.3,48.9,46.5,43.1,91,71,49,30.40,30.26,2,1,7,0.00
2012-10-14,74.6,61.9,52.3,53.0,48.8,45.5,81,64,41,30.32,30.16,6,1,7,0.00
2012-10-15,77.4,66.9,57.0,50.9,47.6,42.0,70,51,34,30.18,30.05,5,1,10,0.00
2012-10-16,79.8,69.4,61.6,53.4,49.2,46.8,59,49,37,30.07,29.95,4,1,10,0.00
2012-10-17,80.1,69.2,62.4,48.7,38.4,31.2,57,34,21,30.01,29.93,5,1,10,0.00
2012-10-18,87.0,71.9,62.9,46.7,39.7,25.6,48,32,20,30.11,30.00,6,2,8,0.00
2012-10-19,63.2,63.0,62.9,42.5,42.5,42.4,47,47,47,30.09,30.08,1,0,6,0.00
2012-10-21,49.1,48.7,48.0,36.5,35.1,34.5,64,59,57,29.97,29.90,4,3,6,0.00
2012-10-22,48.5,44.5,42.9,46.2,43.0,36.0,96,95,62,30.05,29.88,6,2,12,1.49
2012-10-23,52.0,45.2,40.5,48.7,41.6,35.3,97,88,67,30.18,30.03,4,1,13,0.25
2012-10-24,51.6,44.9,40.9,48.9,42.8,37.3,96,92,84,30.34,30.15,5,1,7,0.31
2012-10-25,59.3,50.4,44.9,45.8,43.0,35.3,94,77,54,30.41,30.32,8,2,11,0.00
2012-10-26,67.1,56.4,46.5,46.2,37.3,30.1,64,49,32,30.33,30.19,6,1,9,0.00
2012-10-27,71.8,61.7,54.8,50.4,45.7,40.2,74,56,43,30.19,30.06,4,1,9,0.00
2012-10-28,73.7,62.8,53.9,50.9,45.6,39.9,73,55,33,30.13,30.06,7,2,9,0.00
2012-10-29,75.6,63.1,54.4,47.7,43.5,37.0,66,50,27,30.22,30.11,7,3,9,0.00
2012-10-30,74.4,62.4,55.4,49.2,43.9,37.3,66,52,34,30.18,30.06,7,3,10,0.00
2012-10-31,58.7,54.2,49.9,51.2,47.0,39.9,95,77,56,30.14,30.03,7,2,11,0.33
2012-11-1,61.8,54.0,49.9,54.8,51.2,48.7,97,91,71,30.16,30.10,8,1,11,0.47
2012-11-2,63.2,54.1,47.4,51.2,47.3,41.0,94,79,53,30.18,30.13,6,1,8,0.01
2012-11-3,66.6,57.1,49.8,53.1,47.6,41.7,87,71,52,30.26,30.16,4,1,8,0.00
2012-11-4,69.8,61.0,53.3,53.1,48.6,42.9,75,64,47,30.32,30.25,4,0,7,0.00
2012-11-5,76.1,65.6,58.6,55.8,47.6,38.2,65,53,41,30.30,30.17,5,0,6,0.00
2012-11-6,77.6,66.0,58.3,52.1,42.5,36.1,55,44,23,30.22,30.11,7,2,10,0.00
2012-11-7,72.8,61.2,52.2,47.8,41.3,32.8,85,50,32,30.14,29.93,6,2,10,0.00
2012-11-8,52.2,44.6,39.1,47.8,40.3,34.2,96,86,58,30.03,29.90,6,2,9,0.39
2012-11-9,42.3,37.8,35.0,40.9,36.5,34.0,96,95,92,30.10,30.00,6,1,9,0.09
2012-11-10,45.8,37.9,33.7,39.4,34.9,30.3,95,89,67,30.41,30.08,8,2,9,0.02
2012-11-11,50.4,39.8,31.9,33.3,29.6,24.5,86,68,38,30.53,30.40,6,2,10,0.00
2012-11-12,55.1,45.9,37.2,37.6,33.2,26.7,82,63,34,30.54,30.40,8,2,9,0.00
2012-11-13,64.0,52.1,43.2,45.0,38.1,26.8,72,59,39,30.41,30.22,10,2,11,0.00
2012-11-14,64.5,55.0,48.9,48.2,42.7,34.9,75,64,49,30.25,30.14,7,2,10,0.00
2012-11-15,64.3,54.4,47.9,44.3,34.4,24.6,73,48,26,30.16,30.08,8,2,11,0.00
2012-11-16,56.9,51.6,49.2,49.0,42.0,28.3,95,72,38,30.15,30.03,7,2,11,0.16
2012-11-17,52.3,50.3,48.2,51.5,49.3,47.4,97,96,95,30.09,29.98,7,3,13,1.55
2012-11-18,50.2,46.9,44.1,48.0,44.6,40.0,97,92,76,30.32,30.09,5,2,13,0.39
2012-11-19,58.4,50.3,43.9,47.6,43.7,39.2,91,78,59,30.37,30.28,8,3,12,0.00
2012-11-20,55.0,51.2,47.9,49.4,46.4,41.7,96,84,68,30.29,30.15,6,3,11,0.47
2012-11-21,53.1,49.2,44.8,52.3,48.3,43.7,97,96,95,30.32,30.17,4,1,9,1.40
2012-11-22,59.8,49.6,42.8,49.2,44.6,38.1,96,84,56,30.37,30.29,5,1,7,0.01
2012-11-23,64.7,54.0,45.2,49.8,43.4,36.2,92,68,50,30.41,30.30,6,1,10,0.00
2012-11-24,65.8,55.5,49.9,48.1,39.2,29.1,77,56,32,30.31,30.13,5,1,5,0.00
2012-11-25,62.1,52.6,47.3,44.9,37.8,30.2,77,58,37,30.14,30.05,5,1,7,0.00
2012-11-26,62.0,51.9,44.3,46.2,38.0,30.3,80,60,39,30.19,30.08,6,2,8,0.00
2012-11-27,58.9,52.1,47.0,43.5,36.4,26.7,79,55,40,30.23,30.13,9,3,11,0.00
2012-11-28,53.8,49.6,46.5,50.3,45.3,35.9,97,86,52,30.19,30.01,16,3,35,0.99
2012-11-29,53.9,50.9,47.9,51.1,49.4,47.1,97,95,82,30.21,29.97,9,4,35,0.73
2012-11-30,52.5,51.7,50.7,51.7,50.8,49.9,97,97,96,30.11,29.88,9,5,21,3.34
2012-12-1,53.1,51.6,48.5,52.3,50.8,47.7,100,97,97,30.16,29.99,10,5,21,1.33
2012-12-2,53.5,49.4,41.8,53.5,49.4,41.8,100,100,100,30.25,29.80,12,4,26,1.82
2012-12-3,56.5,48.4,41.1,50.4,45.7,39.9,100,91,76,30.33,30.21,11,2,13,0.00
2012-12-4,53.2,49.8,44.6,50.6,47.0,42.4,96,90,81,30.37,30.28,13,4,16,0.25
2012-12-5,53.9,50.5,43.5,53.9,50.0,42.2,100,98,91,30.34,30.23,16,3,21,0.89
2012-12-6,52.2,49.5,44.5,52.2,49.5,44.5,100,100,100,30.24,30.17,4,0,5,0.01
2012-12-7,58.7,48.9,41.3,49.9,40.7,31.2,100,75,44,30.25,30.18,5,1,6,0.00
2012-12-8,55.6,47.0,40.9,41.9,32.9,19.5,81,59,35,30.22,30.14,3,0,6,0.00
2012-12-9,57.8,51.3,44.5,44.9,36.8,30.6,73,58,37,30.31,30.18,6,1,9,0.00
2012-12-10,60.4,51.2,43.9,47.7,41.8,33.6,90,71,53,30.35,30.21,4,0,6,0.00
2012-12-11,59.3,48.1,41.3,45.2,38.7,31.2,96,72,47,30.22,29.91,7,3,10,0.13
2012-12-12,43.2,40.2,35.9,43.2,38.9,33.5,100,95,87,30.03,29.91,5,2,9,0.17
2012-12-13,44.8,37.8,33.5,37.4,34.5,31.4,95,88,67,30.06,29.96,6,1,7,0.04
2012-12-14,43.9,36.6,31.0,34.6,31.5,27.8,92,82,59,30.15,29.95,6,2,7,0.00
2012-12-15,41.5,35.8,30.4,33.6,30.4,25.8,92,81,61,30.23,30.15,7,3,11,0.01
2012-12-16,45.2,41.2,36.9,43.2,36.8,32.2,100,85,69,30.27,30.14,8,4,14,0.28
2012-12-17,47.3,44.4,41.3,47.3,44.3,41.3,100,100,96,30.17,30.08,6,3,14,1.50
2012-12-18,41.5,36.1,30.4,41.5,31.4,23.0,100,84,54,30.30,30.05,5,2,12,0.00
2012-12-19,43.3,34.7,27.9,26.3,20.8,13.3,74,58,31,30.45,30.30,9,3,12,0.01
2012-12-20,50.4,41.4,33.5,26.0,21.4,16.9,71,46,27,30.39,30.15,8,4,12,0.00
2012-12-21,44.3,40.9,35.9,41.7,28.8,16.5,96,67,34,30.16,30.01,15,5,25,0.37
2012-12-22,44.9,41.5,38.2,42.9,40.3,37.2,97,96,91,30.24,29.93,10,4,25,1.01
2012-12-23,41.8,40.6,39.6,41.3,39.8,38.8,98,97,97,30.23,30.12,13,6,19,0.44
2012-12-24,46.0,41.2,37.8,43.2,38.7,32.1,100,91,68,30.33,30.11,8,1,13,0.10
2012-12-25,41.9,38.8,36.0,38.8,34.9,30.5,97,86,71,30.28,29.93,11,5,22,0.89
2012-12-26,42.1,38.9,34.7,42.1,38.4,33.7,100,98,96,30.21,29.95,5,2,14,0.40
2012-12-27,44.3,37.0,32.2,39.3,34.9,28.8,100,93,71,30.30,30.20,9,2,11,0.01
2012-12-28,41.9,37.3,31.8,33.9,30.4,27.5,86,76,63,30.34,30.20,9,4,11,0.00
2012-12-29,47.7,40.7,37.5,35.9,31.3,27.2,84,70,48,30.21,30.13,5,1,5,0.01
2012-12-30,49.2,39.7,35.5,33.9,27.1,16.1,89,63,38,30.27,30.15,7,2,15,0.00
2012-12-31,46.1,37.6,32.4,33.4,24.6,15.4,89,61,40,30.42,30.25,11,3,14,0.00
2013-1-1,45.7,38.6,32.2,31.8,28.7,20.8,85,68,50,30.41,30.35,6,1,8,0.00